Time;durP1;ratioP1;P1;durP2;ratioP2;P2;SDS_P1;SDS_P2;PMS_P1;PMS_P2;Temp;Humidity;BMP_temperature;BMP_pressure;BME280_temperature;BME280_humidity;BME280_pressure;Samples;Min_cycle;Max_cycle;Signal;HPM_P1;HPM_P2
2024/03/14 00:02:22;;;;;;;50.35;45.85;;;;;;;6.31;100.00;100784.97;5089655;28;20490;-70
2024/03/14 00:04:49;;;;;;;52.22;47.63;;;;;;;6.19;100.00;100784.56;5091394;27;20055;-71
2024/03/14 00:07:16;;;;;;;56.70;51.70;;;;;;;6.04;100.00;100774.94;5124943;27;20467;-70
2024/03/14 00:09:43;;;;;;;53.80;49.05;;;;;;;6.13;100.00;100777.34;5097732;28;20081;-70
2024/03/14 00:12:10;;;;;;;56.80;51.88;;;;;;;6.03;100.00;100776.78;5095790;27;20550;-70
2024/03/14 00:14:38;;;;;;;51.92;47.28;;;;;;;6.02;100.00;100769.88;5078039;27;20048;-70
2024/03/14 00:17:06;;;;;;;52.83;48.22;;;;;;;6.06;100.00;100772.97;5077286;28;20043;-70
2024/03/14 00:19:33;;;;;;;51.47;46.83;;;;;;;6.06;100.00;100772.97;5080562;28;20059;-70
2024/03/14 00:22:00;;;;;;;49.10;44.50;;;;;;;6.04;100.00;100772.31;5108131;28;20043;-70
2024/03/14 00:24:27;;;;;;;49.35;44.75;;;;;;;6.06;100.00;100765.06;5077791;27;20096;-70
2024/03/14 00:26:54;;;;;;;49.25;44.75;;;;;;;6.01;100.00;100760.31;5079406;28;20054;-70
2024/03/14 00:29:21;;;;;;;50.72;46.13;;;;;;;6.02;100.00;100763.75;5076781;27;20081;-71
2024/03/14 00:31:48;;;;;;;57.83;52.83;;;;;;;5.97;100.00;100764.28;5083429;28;20109;-70
2024/03/14 00:34:15;;;;;;;59.10;53.80;;;;;;;6.07;100.00;100756.16;5075763;28;20055;-70
2024/03/14 00:36:42;;;;;;;54.78;49.88;;;;;;;5.90;100.00;100765.94;5075457;28;20427;-71
2024/03/14 00:39:11;;;;;;;57.38;52.38;;;;;;;5.90;100.00;100763.28;5076413;28;20060;-70
2024/03/14 00:41:38;;;;;;;62.33;56.95;;;;;;;5.87;100.00;100761.00;5109469;27;20052;-71
2024/03/14 00:44:05;;;;;;;52.17;47.00;;;;;;;6.12;100.00;100757.28;5075271;28;20136;-70
2024/03/14 00:46:33;;;;;;;50.25;45.67;;;;;;;5.88;100.00;100758.22;5077742;27;20059;-70
2024/03/14 00:49:00;;;;;;;51.80;47.10;;;;;;;5.84;100.00;100749.03;5080534;27;20598;-71
2024/03/14 00:51:28;;;;;;;56.75;51.95;;;;;;;5.87;100.00;100743.41;5075469;27;20105;-70
2024/03/14 00:53:55;;;;;;;54.63;49.78;;;;;;;5.82;100.00;100756.28;5082474;28;20059;-71
2024/03/14 00:56:24;;;;;;;51.75;47.05;;;;;;;5.80;100.00;100757.44;5081486;28;20499;-71
2024/03/14 00:58:53;;;;;;;50.40;45.80;;;;;;;5.75;100.00;100760.59;5065096;28;20043;-71
2024/03/14 01:01:21;;;;;;;45.20;41.10;;;;;;;5.77;100.00;100763.06;5080656;28;20051;-70
2024/03/14 01:03:48;;;;;;;49.35;45.00;;;;;;;5.76;100.00;100758.78;5076888;27;20410;-71
2024/03/14 01:06:16;;;;;;;49.22;44.75;;;;;;;5.73;100.00;100752.84;5078958;28;20056;-69
2024/03/14 01:08:43;;;;;;;47.22;42.83;;;;;;;5.95;100.00;100758.38;5073734;28;20495;-69
2024/03/14 01:11:10;;;;;;;47.63;43.20;;;;;;;5.90;100.00;100758.03;5075218;27;20070;-69
2024/03/14 01:13:37;;;;;;;52.03;47.63;;;;;;;5.72;100.00;100753.03;5079542;27;20056;-69
2024/03/14 01:16:05;;;;;;;49.55;45.17;;;;;;;6.28;100.00;100758.16;5078287;27;20052;-69
2024/03/14 01:18:33;;;;;;;49.17;44.67;;;;;;;6.27;100.00;100753.88;5075074;28;20206;-70
2024/03/14 01:21:00;;;;;;;47.85;43.60;;;;;;;5.71;100.00;100754.03;5075730;28;20132;-71
2024/03/14 01:23:27;;;;;;;46.92;42.63;;;;;;;5.71;100.00;100752.19;5084491;27;20040;-71
2024/03/14 01:25:54;;;;;;;45.05;40.95;;;;;;;5.75;100.00;100760.59;5076295;27;20048;-70
2024/03/14 01:28:21;;;;;;;47.92;43.63;;;;;;;5.74;100.00;100757.13;5077705;28;20051;-70
2024/03/14 01:30:48;;;;;;;51.20;46.60;;;;;;;5.61;100.00;100759.50;5076419;28;20059;-70
2024/03/14 01:33:15;;;;;;;44.60;40.22;;;;;;;5.56;100.00;100759.19;5075027;28;20109;-70
2024/03/14 01:35:42;;;;;;;44.08;39.97;;;;;;;5.58;100.00;100756.41;5077511;27;20439;-70
2024/03/14 01:38:09;;;;;;;47.63;43.28;;;;;;;5.60;100.00;100757.03;5076312;27;20047;-69
2024/03/14 01:40:36;;;;;;;44.60;40.20;;;;;;;5.53;100.00;100756.91;5074791;27;20058;-70
2024/03/14 01:43:04;;;;;;;47.00;42.70;;;;;;;5.55;100.00;100751.47;5076971;28;20670;-70
2024/03/14 01:45:32;;;;;;;47.83;43.53;;;;;;;5.62;100.00;100761.13;5076709;27;20071;-70
2024/03/14 01:47:59;;;;;;;50.35;45.85;;;;;;;5.56;100.00;100755.75;5074247;27;20055;-70
2024/03/14 01:50:26;;;;;;;45.22;40.92;;;;;;;5.56;100.00;100755.75;5076762;27;20082;-70
2024/03/14 01:52:53;;;;;;;42.10;38.20;;;;;;;5.65;100.00;100759.97;5077483;27;20047;-71
2024/03/14 01:55:20;;;;;;;46.70;42.58;;;;;;;5.49;100.00;100766.16;5077700;27;20076;-70
2024/03/14 01:57:47;;;;;;;52.13;47.63;;;;;;;5.59;100.00;100763.31;5076169;28;20055;-69
2024/03/14 02:00:18;;;;;;;54.55;49.75;;;;;;;5.58;100.00;100766.94;5082920;27;20566;-70
2024/03/14 02:02:45;;;;;;;50.17;45.67;;;;;;;5.60;100.00;100764.94;5079287;27;20584;-70
2024/03/14 02:05:13;;;;;;;51.08;46.47;;;;;;;5.67;100.00;100777.28;5083559;28;20180;-71
2024/03/14 02:07:40;;;;;;;49.08;44.70;;;;;;;5.56;100.00;100767.09;5079022;27;20078;-71
2024/03/14 02:10:08;;;;;;;59.42;54.42;;;;;;;5.50;100.00;100773.06;5080285;27;20055;-70
2024/03/14 02:12:35;;;;;;;57.58;52.63;;;;;;;5.50;100.00;100770.41;5082375;27;20048;-71
2024/03/14 02:15:02;;;;;;;45.58;41.42;;;;;;;5.54;100.00;100774.38;5076685;28;20056;-70
2024/03/14 02:17:29;;;;;;;46.15;41.95;;;;;;;5.42;100.00;100773.94;5071131;28;20051;-69
2024/03/14 02:19:57;;;;;;;45.20;41.00;;;;;;;5.47;100.00;100766.31;5073412;28;20498;-69
2024/03/14 02:22:24;;;;;;;51.17;46.67;;;;;;;5.49;100.00;100769.59;5076880;28;20105;-70
2024/03/14 02:24:51;;;;;;;46.17;41.92;;;;;;;5.77;100.00;100771.78;5084703;28;20183;-70
2024/03/14 02:27:18;;;;;;;45.90;41.40;;;;;;;5.47;100.00;100773.41;5077678;28;20423;-70
2024/03/14 02:29:45;;;;;;;44.50;40.40;;;;;;;5.50;100.00;100778.31;5076295;28;20096;-70
2024/03/14 02:32:12;;;;;;;51.42;46.80;;;;;;;5.42;100.00;100778.38;5106129;28;20050;-71
2024/03/14 02:34:39;;;;;;;49.08;44.83;;;;;;;5.43;100.00;100774.75;5079482;28;20060;-70
2024/03/14 02:37:07;;;;;;;51.95;47.55;;;;;;;5.46;100.00;100769.94;5070223;28;20056;-70
2024/03/14 02:39:34;;;;;;;51.15;46.75;;;;;;;5.30;100.00;100780.56;5076795;28;20050;-70
2024/03/14 02:42:01;;;;;;;50.17;45.88;;;;;;;5.33;100.00;100771.50;5078376;28;20062;-70
2024/03/14 02:44:28;;;;;;;46.53;42.28;;;;;;;5.32;100.00;100770.66;5078579;28;20047;-69
2024/03/14 02:46:56;;;;;;;58.45;53.75;;;;;;;5.27;100.00;100773.81;5072376;28;20047;-69
2024/03/14 02:49:23;;;;;;;48.70;44.40;;;;;;;5.31;100.00;100770.84;5074619;28;20047;-70
2024/03/14 02:51:50;;;;;;;46.58;42.47;;;;;;;5.27;100.00;100775.63;5077851;28;20074;-70
2024/03/14 02:54:17;;;;;;;54.58;50.03;;;;;;;5.23;100.00;100763.78;5073840;28;20043;-71
2024/03/14 02:56:46;;;;;;;52.95;48.35;;;;;;;5.24;100.00;100771.53;5076766;28;20051;-68
2024/03/14 02:59:14;;;;;;;56.72;51.97;;;;;;;5.28;100.00;100769.38;5080239;28;20043;-70
2024/03/14 03:01:41;;;;;;;52.90;48.40;;;;;;;5.16;100.00;100775.97;5073618;28;20059;-70
2024/03/14 03:04:09;;;;;;;50.00;45.63;;;;;;;5.27;100.00;100775.63;5075066;28;20052;-70
2024/03/14 03:06:43;;;;;;;55.53;50.65;;;;;;;5.16;100.00;100776.81;5077345;28;20052;-70
2024/03/14 03:09:10;;;;;;;50.50;46.30;;;;;;;5.19;100.00;100776.47;5074507;28;20142;-70
2024/03/14 03:11:38;;;;;;;49.75;45.58;;;;;;;5.20;100.00;100778.09;5071935;28;20066;-70
2024/03/14 03:14:06;;;;;;;54.75;50.05;;;;;;;5.19;100.00;100779.09;5073860;28;20255;-71
2024/03/14 03:16:32;;;;;;;64.53;59.30;;;;;;;5.21;100.00;100774.50;5075311;28;20063;-72
2024/03/14 03:19:00;;;;;;;72.22;66.93;;;;;;;5.15;100.00;100772.53;5077599;28;20108;-72
2024/03/14 03:21:27;;;;;;;62.50;57.60;;;;;;;5.17;100.00;100777.63;5063404;28;20051;-70
2024/03/14 03:23:53;;;;;;;63.35;58.15;;;;;;;5.03;100.00;100774.69;5078793;28;20134;-70
2024/03/14 03:26:20;;;;;;;69.07;63.30;;;;;;;5.12;100.00;100774.69;5071304;28;20056;-70
2024/03/14 03:28:46;;;;;;;58.63;53.63;;;;;;;5.09;100.00;100772.41;5075623;28;20499;-70
2024/03/14 03:31:13;;;;;;;55.20;50.35;;;;;;;5.13;100.00;100776.31;5074919;28;20131;-70
2024/03/14 03:33:39;;;;;;;52.97;48.33;;;;;;;5.23;100.00;100769.88;5072483;28;20055;-70
2024/03/14 03:36:06;;;;;;;51.08;46.67;;;;;;;5.13;100.00;100773.69;5076698;28;20051;-70
2024/03/14 03:38:33;;;;;;;61.38;55.97;;;;;;;5.82;100.00;100776.53;5073781;28;20054;-71
2024/03/14 03:41:01;;;;;;;64.07;58.70;;;;;;;5.09;100.00;100778.47;5074784;28;20076;-70
2024/03/14 03:43:28;;;;;;;72.05;66.15;;;;;;;5.19;100.00;100781.72;5075623;28;20134;-69
2024/03/14 03:45:57;;;;;;;55.50;50.65;;;;;;;5.31;100.00;100784.00;5087856;28;20062;-70
2024/03/14 03:48:24;;;;;;;49.53;45.13;;;;;;;5.31;100.00;100784.81;5075120;27;20039;-70
2024/03/14 03:50:50;;;;;;;50.60;46.38;;;;;;;5.43;100.00;100787.91;5078682;27;20051;-70
2024/03/14 03:53:18;;;;;;;47.92;43.72;;;;;;;5.19;100.00;100788.81;5080858;27;20043;-69
2024/03/14 03:55:44;;;;;;;48.75;44.35;;;;;;;5.03;100.00;100793.13;5078032;28;20058;-70
2024/03/14 03:58:11;;;;;;;55.72;50.83;;;;;;;4.95;100.00;100790.50;5075921;28;20055;-69
2024/03/14 04:00:44;;;;;;;57.85;52.72;;;;;;;5.27;100.00;100786.97;5082131;28;20051;-70
2024/03/14 04:03:12;;;;;;;53.45;48.55;;;;;;;5.07;100.00;100790.97;5093254;28;20131;-70
2024/03/14 04:05:38;;;;;;;53.83;49.03;;;;;;;5.02;100.00;100799.41;5077439;27;20137;-71
2024/03/14 04:08:06;;;;;;;49.30;45.00;;;;;;;4.95;100.00;100800.22;5080816;27;20552;-71
2024/03/14 04:10:32;;;;;;;50.42;46.03;;;;;;;4.88;100.00;100791.34;5083409;27;20047;-71
2024/03/14 04:13:00;;;;;;;51.92;47.35;;;;;;;5.01;100.00;100795.09;5079939;28;20048;-71
2024/03/14 04:15:28;;;;;;;58.78;53.67;;;;;;;4.93;100.00;100803.03;5081304;28;20058;-70
2024/03/14 04:17:55;;;;;;;52.25;47.55;;;;;;;5.01;100.00;100802.19;5077010;27;20047;-71
2024/03/14 04:20:25;;;;;;;45.38;41.28;;;;;;;4.90;100.00;100802.50;5076617;28;20126;-71
2024/03/14 04:22:53;;;;;;;49.85;45.45;;;;;;;5.27;100.00;100800.16;5077054;28;20047;-71
2024/03/14 04:25:20;;;;;;;61.80;56.75;;;;;;;5.70;100.00;100805.09;5077400;28;20048;-70
2024/03/14 04:27:51;;;;;;;52.55;47.95;;;;;;;5.32;100.00;100812.78;5081463;28;20054;-71
2024/03/14 04:30:20;;;;;;;41.20;37.60;;;;;;;5.02;100.00;100809.06;5078774;28;20400;-71
2024/03/14 04:32:47;;;;;;;44.90;41.03;;;;;;;5.01;100.00;100812.72;5069747;27;20504;-70
2024/03/14 04:35:15;;;;;;;44.55;40.75;;;;;;;5.06;100.00;100813.03;5075106;28;20044;-70
2024/03/14 04:37:42;;;;;;;44.65;41.05;;;;;;;5.39;100.00;100810.34;5077165;27;20059;-70
2024/03/14 04:40:11;;;;;;;46.80;43.10;;;;;;;5.19;100.00;100815.16;5083908;27;20062;-70
2024/03/14 04:42:40;;;;;;;42.65;39.15;;;;;;;4.89;100.00;100814.84;5077280;27;20120;-71
2024/03/14 04:45:09;;;;;;;44.13;40.42;;;;;;;4.91;100.00;100822.59;5075715;27;20079;-71
2024/03/14 04:47:36;;;;;;;48.50;44.50;;;;;;;5.17;100.00;100822.38;5074876;28;20415;-71
2024/03/14 04:50:04;;;;;;;51.35;47.25;;;;;;;4.94;100.00;100824.91;5078332;27;20066;-70
2024/03/14 04:52:31;;;;;;;50.03;46.20;;;;;;;5.01;100.00;100820.59;5085474;27;20060;-70
2024/03/14 04:54:58;;;;;;;58.38;54.03;;;;;;;5.18;100.00;100830.13;5076995;28;20066;-70
2024/03/14 04:57:26;;;;;;;57.35;52.90;;;;;;;5.78;100.00;100836.69;5080670;27;20046;-71
2024/03/14 04:59:54;;;;;;;48.95;45.35;;;;;;;4.99;100.00;100831.31;5078438;27;20044;-70
2024/03/14 05:02:21;;;;;;;43.80;40.50;;;;;;;5.01;100.00;100834.59;5083730;28;20058;-70
2024/03/14 05:04:48;;;;;;;44.75;40.92;;;;;;;5.25;100.00;100841.63;5078147;27;20047;-71
2024/03/14 05:07:15;;;;;;;45.60;41.80;;;;;;;4.93;100.00;100845.16;5077452;28;20063;-70
2024/03/14 05:09:43;;;;;;;54.47;50.58;;;;;;;5.15;100.00;100848.06;5077532;28;20044;-71
2024/03/14 05:12:10;;;;;;;50.65;46.75;;;;;;;5.05;100.00;100842.97;5080435;28;20052;-71
2024/03/14 05:14:37;;;;;;;47.20;43.40;;;;;;;5.62;100.00;100852.56;5085409;28;20055;-70
2024/03/14 05:17:04;;;;;;;45.03;41.63;;;;;;;5.12;100.00;100848.41;5074274;28;20051;-71
2024/03/14 05:19:31;;;;;;;38.88;35.78;;;;;;;5.05;100.00;100850.88;5101063;27;20576;-71
2024/03/14 05:21:59;;;;;;;44.55;40.97;;;;;;;5.51;100.00;100859.03;5075384;28;20101;-71
2024/03/14 05:24:26;;;;;;;44.10;40.67;;;;;;;5.05;100.00;100864.88;5076693;27;20047;-70
2024/03/14 05:26:54;;;;;;;43.97;40.58;;;;;;;5.28;100.00;100854.47;5072925;27;20051;-70
2024/03/14 05:29:21;;;;;;;39.15;36.05;;;;;;;4.95;100.00;100863.38;5076805;27;20130;-71
2024/03/14 05:31:48;;;;;;;42.47;38.97;;;;;;;5.39;100.00;100865.66;5074590;27;20487;-71
2024/03/14 05:34:15;;;;;;;42.35;38.85;;;;;;;5.09;100.00;100861.91;5075440;28;20937;-71
2024/03/14 05:36:42;;;;;;;45.30;41.80;;;;;;;5.36;100.00;100863.34;5075931;28;20485;-70
2024/03/14 05:39:09;;;;;;;41.85;38.45;;;;;;;5.12;100.00;100864.22;5075250;28;20047;-69
2024/03/14 05:41:36;;;;;;;49.15;45.25;;;;;;;6.39;100.00;100881.72;5071546;28;20514;-70
2024/03/14 05:44:03;;;;;;;44.05;40.65;;;;;;;5.83;100.00;100868.63;5079148;27;20047;-70
2024/03/14 05:46:30;;;;;;;46.30;42.90;;;;;;;6.30;100.00;100869.59;5070492;28;20070;-70
2024/03/14 05:48:57;;;;;;;37.60;34.80;;;;;;;5.93;100.00;100878.97;5073229;28;20044;-71
2024/03/14 05:51:24;;;;;;;42.17;39.08;;;;;;;6.11;100.00;100881.38;5072954;27;20513;-71
2024/03/14 05:53:51;;;;;;;39.08;36.17;;;;;;;5.07;100.00;100884.94;5072610;28;20051;-70
2024/03/14 05:56:21;;;;;;;46.25;42.75;;;;;;;5.78;100.00;100886.78;5070282;28;20635;-70
2024/03/14 05:58:49;;;;;;;42.75;39.65;;;;;;;5.24;100.00;100882.13;5073373;28;20053;-70
2024/03/14 06:01:17;;;;;;;42.33;39.22;;;;;;;5.04;100.00;100892.16;5067940;28;20047;-70
2024/03/14 06:03:46;;;;;;;42.25;39.08;;;;;;;5.23;100.00;100895.44;5075385;27;20051;-70
2024/03/14 06:06:13;;;;;;;44.13;40.65;;;;;;;5.08;100.00;100900.56;5107023;27;20834;-70
2024/03/14 06:08:42;;;;;;;45.08;41.65;;;;;;;5.03;100.00;100893.16;5079358;27;20077;-69
2024/03/14 06:11:09;;;;;;;47.42;43.88;;;;;;;5.23;100.00;100896.28;5078163;27;20561;-70
2024/03/14 06:13:36;;;;;;;48.88;45.17;;;;;;;5.49;100.00;100898.69;5075064;28;20051;-70
2024/03/14 06:16:03;;;;;;;46.65;43.05;;;;;;;5.93;100.00;100894.81;5073661;27;20100;-70
2024/03/14 06:18:31;;;;;;;42.70;39.40;;;;;;;5.54;100.00;100902.63;5100768;27;20051;-70
2024/03/14 06:20:59;;;;;;;47.00;43.50;;;;;;;5.41;100.00;100911.06;5073065;28;20148;-70
2024/03/14 06:23:28;;;;;;;41.45;38.20;;;;;;;5.10;100.00;100913.56;5107675;27;20043;-70
2024/03/14 06:25:55;;;;;;;50.92;47.03;;;;;;;5.88;100.00;100915.56;5081891;27;20074;-70
2024/03/14 06:28:23;;;;;;;44.67;41.38;;;;;;;5.08;100.00;100933.97;5076314;28;20056;-69
2024/03/14 06:30:50;;;;;;;54.50;50.15;;;;;;;6.31;100.00;100927.44;5079285;28;20046;-70
2024/03/14 06:33:19;;;;;;;42.90;39.40;;;;;;;5.36;100.00;100934.47;5077735;27;20071;-70
2024/03/14 06:35:46;;;;;;;41.05;37.95;;;;;;;5.07;100.00;100938.41;5079032;27;20046;-70
2024/03/14 06:38:14;;;;;;;50.80;47.00;;;;;;;5.37;100.00;100944.00;5068692;28;20888;-70
2024/03/14 06:40:41;;;;;;;49.67;45.85;;;;;;;6.69;100.00;100942.56;5071380;28;20092;-69
2024/03/14 06:43:08;;;;;;;44.88;41.45;;;;;;;5.15;100.00;100961.31;5073018;27;20100;-69
2024/03/14 06:45:36;;;;;;;46.28;42.78;;;;;;;5.03;100.00;100966.06;5072610;27;20047;-69
2024/03/14 06:48:04;;;;;;;50.20;46.40;;;;;;;5.08;100.00;100976.09;5075320;27;20055;-69
2024/03/14 06:50:31;;;;;;;52.53;48.67;;;;;;;5.47;100.00;100971.00;5073591;28;20603;-70
2024/03/14 06:52:59;;;;;;;50.25;46.45;;;;;;;5.23;100.00;100979.72;5078051;28;20541;-69
2024/03/14 06:55:27;;;;;;;56.60;52.50;;;;;;;5.64;100.00;100975.25;5073467;28;20044;-70
2024/03/14 06:57:54;;;;;;;49.22;45.60;;;;;;;5.37;100.00;100989.59;5076618;28;20101;-70
2024/03/14 07:00:24;;;;;;;48.42;44.72;;;;;;;5.45;100.00;100988.78;5072928;28;20056;-69
2024/03/14 07:02:52;;;;;;;51.20;47.40;;;;;;;5.35;100.00;100991.56;5079682;28;20529;-69
2024/03/14 07:05:22;;;;;;;44.17;40.45;;;;;;;5.26;100.00;101000.47;5071076;28;20054;-70
2024/03/14 07:07:49;;;;;;;47.80;44.05;;;;;;;5.11;100.00;100996.81;5073648;28;20043;-69
2024/03/14 07:10:16;;;;;;;52.22;48.13;;;;;;;5.20;100.00;101001.13;5065363;28;20052;-71
2024/03/14 07:12:45;;;;;;;53.72;49.63;;;;;;;5.44;100.00;101002.94;5075174;28;20043;-69
2024/03/14 07:15:13;;;;;;;49.95;46.05;;;;;;;5.82;100.00;101005.88;5069878;28;20126;-71
2024/03/14 07:17:40;;;;;;;47.17;43.47;;;;;;;5.94;100.00;101013.28;5070931;28;20132;-69
2024/03/14 07:20:09;;;;;;;42.67;39.30;;;;;;;5.51;100.00;101010.03;5082444;28;20047;-70
2024/03/14 07:22:39;;;;;;;49.72;45.92;;;;;;;6.21;100.00;101011.25;5077379;28;20055;-69
2024/03/14 07:25:08;;;;;;;46.70;43.00;;;;;;;5.73;100.00;101018.25;5079892;27;20721;-70
2024/03/14 07:27:35;;;;;;;40.30;37.10;;;;;;;5.58;100.00;101020.72;5077148;28;20059;-70
2024/03/14 07:30:04;;;;;;;43.00;39.70;;;;;;;5.46;100.00;101019.41;5076107;28;20060;-70
2024/03/14 07:32:31;;;;;;;47.63;44.03;;;;;;;5.51;100.00;101023.19;5081513;27;20130;-69
2024/03/14 07:34:58;;;;;;;51.10;47.40;;;;;;;5.49;100.00;101029.63;5078609;27;20043;-69
2024/03/14 07:37:25;;;;;;;46.65;43.15;;;;;;;5.47;100.00;101027.13;5077673;27;20051;-69
2024/03/14 07:39:52;;;;;;;46.72;43.13;;;;;;;5.78;100.00;101030.91;5075315;28;20055;-69
2024/03/14 07:42:20;;;;;;;49.00;45.15;;;;;;;5.91;100.00;101031.22;5084412;27;20457;-69
2024/03/14 07:44:47;;;;;;;57.45;53.45;;;;;;;6.12;100.00;101028.09;5077021;27;20047;-69
2024/03/14 07:47:19;;;;;;;41.90;38.67;;;;;;;6.00;100.00;101030.25;5081293;28;20064;-69
2024/03/14 07:49:48;;;;;;;45.08;41.72;;;;;;;6.37;100.00;101034.91;5076773;28;20055;-68
2024/03/14 07:52:15;;;;;;;48.80;45.20;;;;;;;6.89;100.00;101036.97;5084651;28;20080;-69
2024/03/14 07:54:45;;;;;;;50.95;47.20;;;;;;;6.84;100.00;101036.69;5068297;27;20057;-70
2024/03/14 07:57:15;;;;;;;38.95;35.85;;;;;;;6.10;100.00;101037.97;5108830;27;20062;-70
2024/03/14 07:59:42;;;;;;;40.60;37.40;;;;;;;5.94;100.00;101041.47;5082158;27;20104;-69
2024/03/14 08:02:10;;;;;;;49.70;45.78;;;;;;;6.39;100.00;101032.94;5077417;28;20058;-70
2024/03/14 08:04:38;;;;;;;51.85;47.78;;;;;;;6.73;100.00;101042.34;5077060;27;20054;-69
2024/03/14 08:07:10;;;;;;;43.20;39.80;;;;;;;6.20;100.00;101041.22;5079889;28;20064;-70
2024/03/14 08:09:39;;;;;;;47.22;43.63;;;;;;;6.39;100.00;101048.78;5078980;28;20066;-69
2024/03/14 08:12:07;;;;;;;48.28;44.47;;;;;;;6.32;100.00;101045.16;5075929;28;20786;-69
2024/03/14 08:14:34;;;;;;;53.13;49.03;;;;;;;6.45;100.00;101052.56;5078750;27;20043;-72
2024/03/14 08:17:06;;;;;;;53.85;49.65;;;;;;;6.29;100.00;101050.75;5077305;28;20051;-70
2024/03/14 08:19:33;;;;;;;49.97;46.22;;;;;;;6.48;100.00;101048.75;5077008;28;20441;-69
2024/03/14 08:22:00;;;;;;;57.83;53.38;;;;;;;7.41;100.00;101050.50;5107021;27;20047;-69
2024/03/14 08:24:28;;;;;;;54.72;50.72;;;;;;;6.93;100.00;101055.97;5106174;27;20055;-69
2024/03/14 08:27:06;;;;;;;61.13;56.83;;;;;;;7.23;100.00;101054.28;5107590;27;20047;-69
2024/03/14 08:29:35;;;;;;;50.63;46.83;;;;;;;7.22;100.00;101055.28;5076974;28;20039;-70
2024/03/14 08:32:03;;;;;;;46.70;43.38;;;;;;;6.83;100.00;101061.44;5114615;27;20075;-70
2024/03/14 08:34:30;;;;;;;47.63;44.10;;;;;;;6.78;100.00;101061.16;5105096;27;20128;-69
2024/03/14 08:36:57;;;;;;;43.53;39.92;;;;;;;6.77;100.00;101061.31;5108662;27;20063;-69
2024/03/14 08:39:26;;;;;;;39.22;36.22;;;;;;;6.46;100.00;101064.75;5080438;27;20043;-70
2024/03/14 08:41:53;;;;;;;39.72;36.63;;;;;;;6.09;100.00;101065.34;5082537;27;20051;-69
2024/03/14 08:44:23;;;;;;;47.15;43.65;;;;;;;6.18;100.00;101061.69;5074814;28;20058;-69
2024/03/14 08:46:51;;;;;;;48.28;44.67;;;;;;;6.79;100.00;101068.06;5076453;27;20144;-70
2024/03/14 08:49:18;;;;;;;49.70;45.90;;;;;;;6.47;100.00;101068.19;5108356;27;20105;-70
2024/03/14 08:51:45;;;;;;;48.90;45.30;;;;;;;6.85;100.00;101072.66;5080357;27;20132;-70
2024/03/14 08:56:53;;;;;;;47.95;44.35;;;;;;;6.26;100.00;101069.56;5073540;27;20071;-69
2024/03/14 08:59:22;;;;;;;62.65;57.95;;;;;;;8.10;100.00;101075.03;5077993;27;20047;-70
2024/03/14 09:01:50;;;;;;;45.42;42.13;;;;;;;6.90;100.00;101077.44;5074688;27;20480;-70
2024/03/14 09:04:17;;;;;;;53.10;49.28;;;;;;;7.48;100.00;101075.25;5074795;28;20113;-71
2024/03/14 09:06:45;;;;;;;45.22;41.85;;;;;;;7.00;100.00;101085.13;5072683;27;20101;-71
2024/03/14 09:09:23;;;;;;;45.75;42.25;;;;;;;7.07;100.00;101076.34;5074568;28;20143;-69
2024/03/14 09:11:51;;;;;;;44.70;40.83;;;;;;;6.83;100.00;101076.47;5077188;28;20570;-70
2024/03/14 09:14:18;;;;;;;46.33;42.92;;;;;;;7.03;100.00;101072.41;5073924;28;20801;-70
2024/03/14 09:16:47;;;;;;;43.38;40.28;;;;;;;6.85;100.00;101079.75;5076770;28;20113;-70
2024/03/14 09:19:14;;;;;;;45.58;42.28;;;;;;;7.15;100.00;101080.75;5078931;27;20190;-72
2024/03/14 09:21:41;;;;;;;40.58;37.47;;;;;;;7.35;100.00;101075.81;5080509;27;21031;-71
2024/03/14 09:24:12;;;;;;;45.13;41.83;;;;;;;7.43;100.00;101073.13;5074453;28;20051;-71
2024/03/14 09:26:42;;;;;;;37.83;34.85;;;;;;;6.98;100.00;101066.81;5074311;28;20051;-71
2024/03/14 09:29:11;;;;;;;37.17;34.28;;;;;;;7.43;100.00;101074.97;5073763;28;20050;-71
2024/03/14 09:31:40;;;;;;;39.42;36.08;;;;;;;7.72;100.00;101071.59;5081001;28;20131;-69
2024/03/14 09:34:09;;;;;;;37.50;34.70;;;;;;;7.01;100.00;101076.22;5077815;27;20436;-70
2024/03/14 09:36:36;;;;;;;45.25;41.63;;;;;;;7.50;100.00;101079.38;5078652;27;20051;-72
2024/03/14 09:39:10;;;;;;;38.70;35.90;;;;;;;6.83;100.00;101082.56;5078813;28;20052;-72
2024/03/14 09:41:40;;;;;;;46.78;43.47;;;;;;;7.37;100.00;101083.59;5076540;28;20048;-72
2024/03/14 09:44:09;;;;;;;49.47;45.97;;;;;;;7.53;100.00;101088.75;5069500;28;20572;-72
2024/03/14 09:46:36;;;;;;;48.95;45.40;;;;;;;7.75;100.00;101095.84;5071474;28;20097;-72
2024/03/14 09:49:07;;;;;;;40.40;37.50;;;;;;;6.89;100.00;101091.63;5067269;28;20112;-72
2024/03/14 09:51:34;;;;;;;45.80;42.47;;;;;;;7.83;100.00;101096.78;5087065;28;20093;-72
2024/03/14 09:54:01;;;;;;;56.08;52.28;;;;;;;8.16;100.00;101105.25;5075094;28;20104;-72
2024/03/14 09:56:29;;;;;;;49.60;46.30;;;;;;;8.32;100.00;101093.66;5072152;28;20048;-72
2024/03/14 09:58:56;;;;;;;48.40;45.10;;;;;;;8.69;100.00;101095.44;5074328;28;20525;-72
2024/03/14 10:01:24;;;;;;;41.55;38.67;;;;;;;7.83;100.00;101100.25;5102733;27;20056;-72
2024/03/14 10:03:50;;;;;;;44.10;41.10;;;;;;;8.35;100.00;101102.09;5069096;28;20047;-70
2024/03/14 10:06:20;;;;;;;44.90;41.90;;;;;;;8.08;100.00;101100.88;5071325;28;20564;-70
2024/03/14 10:08:47;;;;;;;43.70;40.60;;;;;;;8.31;100.00;101099.97;5069470;28;20052;-71
2024/03/14 10:11:14;;;;;;;43.45;40.45;;;;;;;8.31;100.00;101103.44;5072648;28;20494;-69
2024/03/14 10:13:43;;;;;;;43.20;40.30;;;;;;;7.84;100.00;101111.63;5072955;28;20088;-71
2024/03/14 10:16:10;;;;;;;41.63;38.72;;;;;;;7.75;100.00;101110.91;5070946;28;20115;-70
2024/03/14 10:18:37;;;;;;;44.72;41.63;;;;;;;7.94;100.00;101105.13;5071401;28;20140;-70
2024/03/14 10:21:05;;;;;;;49.65;46.15;;;;;;;8.40;100.00;101107.66;5069414;28;20085;-70
2024/03/14 10:23:32;;;;;;;43.75;40.85;;;;;;;8.63;100.00;101114.72;5071280;28;20160;-71
2024/03/14 10:25:59;;;;;;;41.47;38.65;;;;;;;8.15;100.00;101115.00;5070524;28;20050;-70
2024/03/14 10:28:31;;;;;;;43.63;40.42;;;;;;;8.24;100.00;101111.28;5071334;28;20044;-71
2024/03/14 10:31:02;;;;;;;51.15;47.45;;;;;;;8.17;100.00;101118.31;5072094;28;20051;-71
2024/03/14 10:33:29;;;;;;;46.15;42.95;;;;;;;7.94;100.00;101120.16;5073318;28;20138;-71
2024/03/14 10:35:57;;;;;;;43.60;40.70;;;;;;;8.15;100.00;101111.53;5071957;28;20124;-70
2024/03/14 10:38:26;;;;;;;41.47;38.58;;;;;;;8.15;100.00;101112.34;5071679;28;20108;-70
2024/03/14 10:40:57;;;;;;;43.35;40.35;;;;;;;8.28;100.00;101111.72;5067163;28;20059;-70
2024/03/14 10:43:26;;;;;;;41.95;39.13;;;;;;;8.40;100.00;101120.09;5072387;28;20101;-70
2024/03/14 10:45:53;;;;;;;42.58;39.65;;;;;;;8.10;100.00;101121.84;5070474;28;20044;-69
2024/03/14 10:48:23;;;;;;;41.03;38.13;;;;;;;8.22;100.00;101117.75;5071964;28;20058;-69
2024/03/14 10:50:54;;;;;;;40.55;37.65;;;;;;;8.43;100.00;101115.25;5070456;28;20071;-69
2024/03/14 10:53:22;;;;;;;37.65;35.05;;;;;;;8.20;100.00;101119.75;5073027;28;20058;-70
2024/03/14 10:55:50;;;;;;;43.70;40.25;;;;;;;8.49;100.00;101122.44;5072644;28;20592;-70
2024/03/14 10:58:18;;;;;;;42.03;39.13;;;;;;;8.91;100.00;101113.03;5104664;28;21417;-70
2024/03/14 11:00:46;;;;;;;39.10;36.40;;;;;;;8.11;100.00;101123.47;5070381;28;20431;-70
2024/03/14 11:03:17;;;;;;;41.08;38.38;;;;;;;7.75;100.00;101129.41;5065925;28;20060;-69
2024/03/14 11:05:48;;;;;;;39.75;37.05;;;;;;;8.26;100.00;101134.94;5072031;28;20062;-70
2024/03/14 11:08:16;;;;;;;39.05;36.53;;;;;;;8.27;100.00;101134.72;5071312;28;20067;-70
2024/03/14 11:10:43;;;;;;;36.58;34.28;;;;;;;8.16;100.00;101134.34;5072301;28;20891;-69
2024/03/14 11:13:11;;;;;;;35.65;33.45;;;;;;;8.07;100.00;101136.25;5071990;28;20154;-71
2024/03/14 11:15:38;;;;;;;37.88;35.47;;;;;;;7.94;100.00;101128.09;5103389;28;20036;-71